sensor_id;sensor_type;location;lat;lon;timestamp;pressure;altitude;pressure_sealevel;temperature;humidity
76434;BME280;65265;53.200;6.080;2023-04-03T00:02:24;103303.06;;;1.65;89.09
76434;BME280;65265;53.200;6.080;2023-04-03T00:07:16;103308.50;;;1.54;89.35
76434;BME280;65265;53.200;6.080;2023-04-03T00:12:09;103311.22;;;1.49;89.47
76434;BME280;65265;53.200;6.080;2023-04-03T00:17:04;103310.72;;;1.44;90.34
76434;BME280;65265;53.200;6.080;2023-04-03T00:21:57;103319.53;;;1.48;90.58
76434;BME280;65265;53.200;6.080;2023-04-03T00:26:52;103311.63;;;1.45;90.35
76434;BME280;65265;53.200;6.080;2023-04-03T00:31:45;103316.28;;;1.42;90.26
76434;BME280;65265;53.200;6.080;2023-04-03T00:36:40;103310.19;;;1.33;89.85
76434;BME280;65265;53.200;6.080;2023-04-03T00:41:33;103326.03;;;1.39;89.88
76434;BME280;65265;53.200;6.080;2023-04-03T00:46:25;103299.81;;;1.23;88.65
76434;BME280;65265;53.200;6.080;2023-04-03T00:51:21;103326.94;;;1.32;88.96
76434;BME280;65265;53.200;6.080;2023-04-03T00:56:25;103328.56;;;1.32;87.61
76434;BME280;65265;53.200;6.080;2023-04-03T01:01:22;103333.59;;;1.32;86.62
76434;BME280;65265;53.200;6.080;2023-04-03T01:06:19;103327.47;;;1.37;85.74
76434;BME280;65265;53.200;6.080;2023-04-03T01:11:14;103334.69;;;1.34;84.02
76434;BME280;65265;53.200;6.080;2023-04-03T01:16:12;103326.22;;;1.26;83.41
76434;BME280;65265;53.200;6.080;2023-04-03T01:21:43;103332.19;;;1.27;82.36
76434;BME280;65265;53.200;6.080;2023-04-03T01:26:42;103325.88;;;1.23;82.17
76434;BME280;65265;53.200;6.080;2023-04-03T01:36:58;103331.16;;;1.04;81.97
76434;BME280;65265;53.200;6.080;2023-04-03T01:41:51;103334.19;;;1.01;82.08
76434;BME280;65265;53.200;6.080;2023-04-03T01:46:46;103336.72;;;0.94;83.09
76434;BME280;65265;53.200;6.080;2023-04-03T01:51:38;103341.06;;;0.88;82.83
76434;BME280;65265;53.200;6.080;2023-04-03T01:56:33;103337.84;;;0.75;83.95
76434;BME280;65265;53.200;6.080;2023-04-03T02:01:26;103343.94;;;0.77;85.39
76434;BME280;65265;53.200;6.080;2023-04-03T02:06:21;103349.16;;;0.72;84.70
76434;BME280;65265;53.200;6.080;2023-04-03T02:11:16;103353.44;;;0.66;84.89
76434;BME280;65265;53.200;6.080;2023-04-03T02:16:13;103357.09;;;0.68;85.68
76434;BME280;65265;53.200;6.080;2023-04-03T02:21:07;103356.53;;;0.63;85.42
76434;BME280;65265;53.200;6.080;2023-04-03T02:26:06;103360.09;;;0.58;86.21
76434;BME280;65265;53.200;6.080;2023-04-03T02:30:59;103372.50;;;0.50;86.61
76434;BME280;65265;53.200;6.080;2023-04-03T02:35:55;103370.16;;;0.44;86.63
76434;BME280;65265;53.200;6.080;2023-04-03T02:40:48;103375.91;;;0.43;86.29
76434;BME280;65265;53.200;6.080;2023-04-03T02:45:41;103376.97;;;0.38;86.39
76434;BME280;65265;53.200;6.080;2023-04-03T02:50:34;103379.50;;;0.31;86.57
76434;BME280;65265;53.200;6.080;2023-04-03T02:55:33;103383.09;;;0.33;87.04
76434;BME280;65265;53.200;6.080;2023-04-03T03:00:26;103377.88;;;0.25;86.85
76434;BME280;65265;53.200;6.080;2023-04-03T03:05:18;103387.38;;;0.27;87.86
76434;BME280;65265;53.200;6.080;2023-04-03T03:10:11;103388.81;;;0.25;87.86
76434;BME280;65265;53.200;6.080;2023-04-03T03:15:08;103396.00;;;0.22;88.13
76434;BME280;65265;53.200;6.080;2023-04-03T03:20:01;103396.00;;;0.22;88.56
76434;BME280;65265;53.200;6.080;2023-04-03T03:24:54;103396.34;;;0.18;88.28
76434;BME280;65265;53.200;6.080;2023-04-03T03:29:47;103396.13;;;0.10;88.52
76434;BME280;65265;53.200;6.080;2023-04-03T03:34:42;103368.56;;;-0.09;89.04
76434;BME280;65265;53.200;6.080;2023-04-03T03:39:34;103404.94;;;0.06;88.58
76434;BME280;65265;53.200;6.080;2023-04-03T03:44:27;103388.38;;;-0.05;89.41
76434;BME280;65265;53.200;6.080;2023-04-03T03:49:22;103381.13;;;-0.16;89.22
76434;BME280;65265;53.200;6.080;2023-04-03T03:54:17;103406.66;;;-0.07;88.99
76434;BME280;65265;53.200;6.080;2023-04-03T03:59:11;103398.91;;;-0.15;89.52
76434;BME280;65265;53.200;6.080;2023-04-03T04:04:04;103404.50;;;-0.10;89.53
76434;BME280;65265;53.200;6.080;2023-04-03T04:08:58;103405.53;;;-0.22;90.13
76434;BME280;65265;53.200;6.080;2023-04-03T04:13:54;103392.59;;;-0.25;90.77
76434;BME280;65265;53.200;6.080;2023-04-03T04:18:47;103398.75;;;-0.16;90.81
76434;BME280;65265;53.200;6.080;2023-04-03T04:23:43;103391.16;;;-0.23;90.79
76434;BME280;65265;53.200;6.080;2023-04-03T04:28:35;103390.69;;;-0.40;91.78
76434;BME280;65265;53.200;6.080;2023-04-03T04:33:30;103410.91;;;-0.26;91.49
76434;BME280;65265;53.200;6.080;2023-04-03T04:38:24;103416.97;;;-0.31;93.20
76434;BME280;65265;53.200;6.080;2023-04-03T04:43:17;103433.47;;;-0.33;93.72
76434;BME280;65265;53.200;6.080;2023-04-03T04:48:10;103425.56;;;-0.36;93.34
76434;BME280;65265;53.200;6.080;2023-04-03T04:53:05;103426.28;;;-0.37;92.52
76434;BME280;65265;53.200;6.080;2023-04-03T04:57:59;103444.03;;;-0.36;91.87
76434;BME280;65265;53.200;6.080;2023-04-03T05:02:51;103442.03;;;-0.45;92.44
76434;BME280;65265;53.200;6.080;2023-04-03T05:07:44;103455.66;;;-0.43;91.45
76434;BME280;65265;53.200;6.080;2023-04-03T05:12:39;103457.31;;;-0.44;91.79
76434;BME280;65265;53.200;6.080;2023-04-03T05:17:34;103448.47;;;-0.47;91.74
76434;BME280;65265;53.200;6.080;2023-04-03T05:22:27;103435.34;;;-0.52;91.64
76434;BME280;65265;53.200;6.080;2023-04-03T05:27:20;103437.78;;;-0.59;91.36
76434;BME280;65265;53.200;6.080;2023-04-03T05:32:18;103450.78;;;-0.49;92.01
76434;BME280;65265;53.200;6.080;2023-04-03T05:37:11;103458.38;;;-0.42;91.52
76434;BME280;65265;53.200;6.080;2023-04-03T05:42:04;103458.75;;;-0.39;91.77
76434;BME280;65265;53.200;6.080;2023-04-03T05:46:56;103461.84;;;-0.34;92.22
76434;BME280;65265;53.200;6.080;2023-04-03T05:51:51;103464.06;;;-0.23;91.39
76434;BME280;65265;53.200;6.080;2023-04-03T05:56:45;103469.28;;;-0.22;90.55
76434;BME280;65265;53.200;6.080;2023-04-03T06:01:38;103480.22;;;-0.21;90.88
76434;BME280;65265;53.200;6.080;2023-04-03T06:06:44;103477.78;;;-0.14;90.42
76434;BME280;65265;53.200;6.080;2023-04-03T06:11:40;103480.13;;;-0.09;89.87
76434;BME280;65265;53.200;6.080;2023-04-03T06:16:33;103482.16;;;0.00;89.98
76434;BME280;65265;53.200;6.080;2023-04-03T06:21:27;103479.63;;;0.00;89.42
76434;BME280;65265;53.200;6.080;2023-04-03T06:26:19;103477.88;;;0.06;89.17
76434;BME280;65265;53.200;6.080;2023-04-03T06:31:15;103488.00;;;0.20;89.34
76434;BME280;65265;53.200;6.080;2023-04-03T06:36:10;103492.38;;;0.28;88.51
76434;BME280;65265;53.200;6.080;2023-04-03T06:41:05;103495.97;;;0.37;88.20
76434;BME280;65265;53.200;6.080;2023-04-03T06:45:57;103501.41;;;0.47;88.68
76434;BME280;65265;53.200;6.080;2023-04-03T06:50:53;103505.41;;;0.59;87.58
76434;BME280;65265;53.200;6.080;2023-04-03T06:55:48;103510.50;;;0.73;87.43
76434;BME280;65265;53.200;6.080;2023-04-03T07:00:40;103512.13;;;0.87;86.43
76434;BME280;65265;53.200;6.080;2023-04-03T07:05:33;103524.22;;;1.03;85.69
76434;BME280;65265;53.200;6.080;2023-04-03T07:10:28;103527.31;;;1.15;85.19
76434;BME280;65265;53.200;6.080;2023-04-03T07:15:21;103530.19;;;1.32;84.37
76434;BME280;65265;53.200;6.080;2023-04-03T07:20:15;103514.38;;;1.40;84.39
76434;BME280;65265;53.200;6.080;2023-04-03T07:25:08;103530.03;;;1.58;82.55
76434;BME280;65265;53.200;6.080;2023-04-03T07:30:03;103548.78;;;1.74;80.59
76434;BME280;65265;53.200;6.080;2023-04-03T07:34:57;103555.78;;;1.91;81.06
76434;BME280;65265;53.200;6.080;2023-04-03T07:39:49;103558.09;;;2.03;80.30
76434;BME280;65265;53.200;6.080;2023-04-03T07:44:43;103567.41;;;2.32;79.30
76434;BME280;65265;53.200;6.080;2023-04-03T07:49:38;103549.13;;;2.48;77.03
76434;BME280;65265;53.200;6.080;2023-04-03T07:54:32;103566.34;;;2.73;77.24
76434;BME280;65265;53.200;6.080;2023-04-03T07:59:26;103553.88;;;2.75;75.57
76434;BME280;65265;53.200;6.080;2023-04-03T08:04:19;103570.38;;;2.94;75.46
76434;BME280;65265;53.200;6.080;2023-04-03T08:09:14;103560.28;;;3.23;72.63
76434;BME280;65265;53.200;6.080;2023-04-03T08:14:07;103555.31;;;3.39;72.90
76434;BME280;65265;53.200;6.080;2023-04-03T08:19:02;103560.84;;;3.66;71.85
76434;BME280;65265;53.200;6.080;2023-04-03T08:23:54;103554.13;;;3.89;70.25
76434;BME280;65265;53.200;6.080;2023-04-03T08:28:48;103556.16;;;4.07;68.46
76434;BME280;65265;53.200;6.080;2023-04-03T08:33:42;103547.22;;;4.26;67.66
76434;BME280;65265;53.200;6.080;2023-04-03T08:38:34;103556.72;;;4.51;67.19
76434;BME280;65265;53.200;6.080;2023-04-03T08:43:34;103558.91;;;4.78;66.11
76434;BME280;65265;53.200;6.080;2023-04-03T08:48:36;103538.84;;;5.12;65.87
76434;BME280;65265;53.200;6.080;2023-04-03T08:53:33;103544.75;;;5.52;60.00
76434;BME280;65265;53.200;6.080;2023-04-03T08:58:30;103547.88;;;5.82;58.36
76434;BME280;65265;53.200;6.080;2023-04-03T09:03:24;103541.72;;;6.13;56.23
76434;BME280;65265;53.200;6.080;2023-04-03T09:08:22;103538.78;;;6.42;53.83
76434;BME280;65265;53.200;6.080;2023-04-03T09:13:26;103530.97;;;6.75;53.68
76434;BME280;65265;53.200;6.080;2023-04-03T09:18:30;103524.34;;;7.10;51.60
76434;BME280;65265;53.200;6.080;2023-04-03T09:23:30;103528.94;;;7.40;52.07
76434;BME280;65265;53.200;6.080;2023-04-03T09:28:25;103524.47;;;7.64;50.79
76434;BME280;65265;53.200;6.080;2023-04-03T09:33:17;103529.44;;;7.90;50.29
76434;BME280;65265;53.200;6.080;2023-04-03T09:38:17;103537.09;;;8.17;49.59
76434;BME280;65265;53.200;6.080;2023-04-03T09:43:27;103530.19;;;8.61;49.61
76434;BME280;65265;53.200;6.080;2023-04-03T09:48:22;103528.94;;;8.85;48.08
76434;BME280;65265;53.200;6.080;2023-04-03T09:53:27;103529.97;;;8.87;47.58
76434;BME280;65265;53.200;6.080;2023-04-03T09:58:27;103520.13;;;9.10;45.60
76434;BME280;65265;53.200;6.080;2023-04-03T10:03:27;103500.16;;;8.96;44.58
76434;BME280;65265;53.200;6.080;2023-04-03T10:08:25;103510.94;;;9.12;44.63
76434;BME280;65265;53.200;6.080;2023-04-03T10:13:20;103514.88;;;9.46;42.33
76434;BME280;65265;53.200;6.080;2023-04-03T10:18:29;103499.56;;;9.56;43.62
76434;BME280;65265;53.200;6.080;2023-04-03T10:23:28;103506.75;;;9.70;43.92
76434;BME280;65265;53.200;6.080;2023-04-03T10:28:27;103497.06;;;9.86;42.49
76434;BME280;65265;53.200;6.080;2023-04-03T10:33:46;103498.09;;;9.78;42.35
76434;BME280;65265;53.200;6.080;2023-04-03T10:38:54;103498.47;;;9.93;42.01
76434;BME280;65265;53.200;6.080;2023-04-03T10:43:59;103488.13;;;9.91;39.06
76434;BME280;65265;53.200;6.080;2023-04-03T10:49:10;103484.59;;;10.19;38.73
76434;BME280;65265;53.200;6.080;2023-04-03T10:54:11;103483.44;;;10.06;40.93
76434;BME280;65265;53.200;6.080;2023-04-03T10:59:16;103474.84;;;10.15;38.05
76434;BME280;65265;53.200;6.080;2023-04-03T11:04:15;103476.34;;;9.93;41.40
76434;BME280;65265;53.200;6.080;2023-04-03T11:09:18;103472.41;;;9.87;39.06
76434;BME280;65265;53.200;6.080;2023-04-03T11:14:22;103470.13;;;9.80;36.67
76434;BME280;65265;53.200;6.080;2023-04-03T11:19:22;103464.22;;;9.61;42.62
76434;BME280;65265;53.200;6.080;2023-04-03T11:24:25;103460.88;;;9.62;43.24
76434;BME280;65265;53.200;6.080;2023-04-03T11:29:21;103453.22;;;9.62;41.07
76434;BME280;65265;53.200;6.080;2023-04-03T11:34:26;103444.69;;;9.61;39.93
76434;BME280;65265;53.200;6.080;2023-04-03T11:39:26;103426.66;;;9.60;41.37
76434;BME280;65265;53.200;6.080;2023-04-03T11:44:35;103422.41;;;9.60;39.89
76434;BME280;65265;53.200;6.080;2023-04-03T11:49:55;103410.41;;;9.59;41.52
76434;BME280;65265;53.200;6.080;2023-04-03T11:54:48;103418.22;;;10.01;43.32
76434;BME280;65265;53.200;6.080;2023-04-03T11:59:40;103406.31;;;10.01;39.49
76434;BME280;65265;53.200;6.080;2023-04-03T12:04:32;103412.69;;;10.26;40.79
76434;BME280;65265;53.200;6.080;2023-04-03T12:09:29;103403.00;;;9.82;42.28
76434;BME280;65265;53.200;6.080;2023-04-03T12:14:23;103408.88;;;10.01;40.39
76434;BME280;65265;53.200;6.080;2023-04-03T12:19:35;103405.06;;;10.58;40.77
76434;BME280;65265;53.200;6.080;2023-04-03T12:24:30;103409.22;;;10.99;38.18
76434;BME280;65265;53.200;6.080;2023-04-03T12:29:24;103403.56;;;10.81;40.83
76434;BME280;65265;53.200;6.080;2023-04-03T12:34:50;103405.75;;;10.77;40.96
76434;BME280;65265;53.200;6.080;2023-04-03T12:40:07;103397.56;;;11.02;39.60
76434;BME280;65265;53.200;6.080;2023-04-03T12:45:09;103391.53;;;11.45;36.51
76434;BME280;65265;53.200;6.080;2023-04-03T12:50:21;103388.28;;;11.47;40.51
76434;BME280;65265;53.200;6.080;2023-04-03T12:55:19;103391.00;;;11.27;40.63
76434;BME280;65265;53.200;6.080;2023-04-03T13:00:29;103364.00;;;11.75;40.66
76434;BME280;65265;53.200;6.080;2023-04-03T13:05:23;103362.75;;;11.59;39.61
76434;BME280;65265;53.200;6.080;2023-04-03T13:10:19;103356.94;;;11.07;41.13
76434;BME280;65265;53.200;6.080;2023-04-03T13:15:17;103355.09;;;11.49;38.38
76434;BME280;65265;53.200;6.080;2023-04-03T13:20:17;103345.63;;;11.81;35.97
76434;BME280;65265;53.200;6.080;2023-04-03T13:25:13;103341.59;;;11.73;40.42
76434;BME280;65265;53.200;6.080;2023-04-03T13:30:23;103345.16;;;11.42;39.08
76434;BME280;65265;53.200;6.080;2023-04-03T13:35:29;103340.03;;;11.09;40.30
76434;BME280;65265;53.200;6.080;2023-04-03T13:40:23;103344.06;;;11.17;40.81
76434;BME280;65265;53.200;6.080;2023-04-03T13:45:21;103341.53;;;10.95;43.11
76434;BME280;65265;53.200;6.080;2023-04-03T13:50:20;103337.59;;;11.10;43.81
76434;BME280;65265;53.200;6.080;2023-04-03T13:55:20;103298.47;;;11.23;41.98
76434;BME280;65265;53.200;6.080;2023-04-03T14:00:29;103323.88;;;11.43;40.54
76434;BME280;65265;53.200;6.080;2023-04-03T14:05:25;103320.81;;;10.71;44.45
76434;BME280;65265;53.200;6.080;2023-04-03T14:10:17;103320.09;;;10.62;41.92
76434;BME280;65265;53.200;6.080;2023-04-03T14:15:17;103300.31;;;10.28;43.92
76434;BME280;65265;53.200;6.080;2023-04-03T14:20:15;103322.13;;;10.87;40.56
76434;BME280;65265;53.200;6.080;2023-04-03T14:25:09;103316.25;;;10.67;43.68
76434;BME280;65265;53.200;6.080;2023-04-03T14:30:03;103328.28;;;10.68;43.58
76434;BME280;65265;53.200;6.080;2023-04-03T14:34:56;103309.06;;;11.06;41.24
76434;BME280;65265;53.200;6.080;2023-04-03T14:39:54;103310.41;;;10.79;44.97
76434;BME280;65265;53.200;6.080;2023-04-03T14:44:46;103302.63;;;10.78;44.47
76434;BME280;65265;53.200;6.080;2023-04-03T14:49:41;103305.66;;;10.62;44.75
76434;BME280;65265;53.200;6.080;2023-04-03T14:54:33;103296.75;;;10.47;47.63
76434;BME280;65265;53.200;6.080;2023-04-03T14:59:28;103283.91;;;9.94;49.45
76434;BME280;65265;53.200;6.080;2023-04-03T15:04:23;103279.38;;;8.91;51.76
76434;BME280;65265;53.200;6.080;2023-04-03T15:09:20;103298.69;;;9.37;53.14
76434;BME280;65265;53.200;6.080;2023-04-03T15:14:13;103273.69;;;9.23;49.40
76434;BME280;65265;53.200;6.080;2023-04-03T15:19:08;103289.63;;;9.41;49.74
76434;BME280;65265;53.200;6.080;2023-04-03T15:24:00;103284.66;;;9.22;50.48
76434;BME280;65265;53.200;6.080;2023-04-03T15:28:53;103287.56;;;9.37;50.86
76434;BME280;65265;53.200;6.080;2023-04-03T15:33:46;103282.09;;;9.22;52.12
76434;BME280;65265;53.200;6.080;2023-04-03T15:38:43;103278.31;;;8.69;52.42
76434;BME280;65265;53.200;6.080;2023-04-03T15:43:35;103274.22;;;8.61;52.91
76434;BME280;65265;53.200;6.080;2023-04-03T15:48:28;103279.09;;;8.68;51.59
76434;BME280;65265;53.200;6.080;2023-04-03T15:53:20;103243.28;;;8.38;52.83
76434;BME280;65265;53.200;6.080;2023-04-03T15:58:14;103258.38;;;8.45;53.04
76434;BME280;65265;53.200;6.080;2023-04-03T16:03:10;103272.31;;;8.58;52.63
76434;BME280;65265;53.200;6.080;2023-04-03T16:08:03;103274.69;;;8.47;51.36
76434;BME280;65265;53.200;6.080;2023-04-03T16:12:58;103275.16;;;8.33;50.20
76434;BME280;65265;53.200;6.080;2023-04-03T16:17:52;103269.94;;;8.13;50.40
76434;BME280;65265;53.200;6.080;2023-04-03T16:22:45;103273.19;;;8.02;53.89
76434;BME280;65265;53.200;6.080;2023-04-03T16:27:40;103269.31;;;7.87;52.35
76434;BME280;65265;53.200;6.080;2023-04-03T16:32:32;103259.59;;;7.83;54.76
76434;BME280;65265;53.200;6.080;2023-04-03T16:37:28;103257.03;;;7.73;56.86
76434;BME280;65265;53.200;6.080;2023-04-03T16:42:20;103254.59;;;7.56;56.49
76434;BME280;65265;53.200;6.080;2023-04-03T16:47:13;103266.84;;;7.60;57.23
76434;BME280;65265;53.200;6.080;2023-04-03T16:52:09;103255.22;;;7.53;57.70
76434;BME280;65265;53.200;6.080;2023-04-03T16:57:04;103254.75;;;7.39;58.06
76434;BME280;65265;53.200;6.080;2023-04-03T17:01:56;103254.69;;;7.02;57.22
76434;BME280;65265;53.200;6.080;2023-04-03T17:06:48;103261.03;;;6.97;58.16
76434;BME280;65265;53.200;6.080;2023-04-03T17:11:42;103253.03;;;6.84;59.34
76434;BME280;65265;53.200;6.080;2023-04-03T17:16:37;103256.69;;;6.69;58.78
76434;BME280;65265;53.200;6.080;2023-04-03T17:21:31;103265.75;;;6.49;59.15
76434;BME280;65265;53.200;6.080;2023-04-03T17:26:24;103263.63;;;6.53;58.84
76434;BME280;65265;53.200;6.080;2023-04-03T17:31:17;103259.34;;;6.35;60.60
76434;BME280;65265;53.200;6.080;2023-04-03T17:36:12;103262.84;;;6.19;61.53
76434;BME280;65265;53.200;6.080;2023-04-03T17:41:06;103273.59;;;6.16;64.54
76434;BME280;65265;53.200;6.080;2023-04-03T17:46:00;103269.47;;;5.91;62.74
76434;BME280;65265;53.200;6.080;2023-04-03T17:50:54;103253.06;;;5.62;65.37
76434;BME280;65265;53.200;6.080;2023-04-03T17:55:48;103276.50;;;5.60;65.83
76434;BME280;65265;53.200;6.080;2023-04-03T18:00:40;103279.91;;;5.43;66.84
76434;BME280;65265;53.200;6.080;2023-04-03T18:05:34;103283.78;;;5.31;68.06
76434;BME280;65265;53.200;6.080;2023-04-03T18:10:28;103285.69;;;5.08;66.77
76434;BME280;65265;53.200;6.080;2023-04-03T18:15:24;103280.44;;;4.98;68.34
76434;BME280;65265;53.200;6.080;2023-04-03T18:20:16;103286.06;;;4.87;69.98
76434;BME280;65265;53.200;6.080;2023-04-03T18:25:11;103291.53;;;4.75;69.40
76434;BME280;65265;53.200;6.080;2023-04-03T18:30:09;103280.91;;;4.62;70.63
76434;BME280;65265;53.200;6.080;2023-04-03T18:35:11;103272.81;;;4.57;71.46
76434;BME280;65265;53.200;6.080;2023-04-03T18:40:05;103292.50;;;4.52;71.41
76434;BME280;65265;53.200;6.080;2023-04-03T18:45:01;103276.03;;;4.40;73.60
76434;BME280;65265;53.200;6.080;2023-04-03T18:49:57;103282.34;;;4.28;73.16
76434;BME280;65265;53.200;6.080;2023-04-03T18:54:54;103270.53;;;4.11;74.01
76434;BME280;65265;53.200;6.080;2023-04-03T18:59:47;103287.66;;;4.14;75.44
76434;BME280;65265;53.200;6.080;2023-04-03T19:04:41;103287.16;;;4.09;74.02
76434;BME280;65265;53.200;6.080;2023-04-03T19:09:37;103301.75;;;4.03;75.41
76434;BME280;65265;53.200;6.080;2023-04-03T19:14:32;103302.78;;;4.05;74.97
76434;BME280;65265;53.200;6.080;2023-04-03T19:19:25;103292.25;;;3.94;75.28
76434;BME280;65265;53.200;6.080;2023-04-03T19:24:17;103293.00;;;3.93;77.39
76434;BME280;65265;53.200;6.080;2023-04-03T19:29:12;103297.94;;;3.91;76.72
76434;BME280;65265;53.200;6.080;2023-04-03T19:34:07;103284.88;;;3.80;77.28
76434;BME280;65265;53.200;6.080;2023-04-03T19:39:00;103292.59;;;3.73;76.71
76434;BME280;65265;53.200;6.080;2023-04-03T19:43:55;103288.91;;;3.62;77.79
76434;BME280;65265;53.200;6.080;2023-04-03T19:48:48;103275.69;;;3.49;77.15
76434;BME280;65265;53.200;6.080;2023-04-03T19:53:44;103275.28;;;3.38;78.39
76434;BME280;65265;53.200;6.080;2023-04-03T19:58:36;103295.50;;;3.38;79.01
76434;BME280;65265;53.200;6.080;2023-04-03T20:03:30;103282.31;;;3.25;79.74
76434;BME280;65265;53.200;6.080;2023-04-03T20:08:24;103287.72;;;3.28;80.14
76434;BME280;65265;53.200;6.080;2023-04-03T20:13:21;103287.38;;;3.25;78.81
76434;BME280;65265;53.200;6.080;2023-04-03T20:18:16;103285.56;;;3.24;80.28
76434;BME280;65265;53.200;6.080;2023-04-03T20:23:11;103287.78;;;3.21;80.31
76434;BME280;65265;53.200;6.080;2023-04-03T20:28:04;103268.34;;;2.97;79.78
76434;BME280;65265;53.200;6.080;2023-04-03T20:33:01;103286.53;;;3.02;80.17
76434;BME280;65265;53.200;6.080;2023-04-03T20:37:53;103277.44;;;2.88;80.07
76434;BME280;65265;53.200;6.080;2023-04-03T20:42:46;103287.00;;;2.91;80.04
76434;BME280;65265;53.200;6.080;2023-04-03T20:47:41;103275.53;;;2.86;80.19
76434;BME280;65265;53.200;6.080;2023-04-03T20:52:35;103262.22;;;2.80;80.16
76434;BME280;65265;53.200;6.080;2023-04-03T20:57:28;103247.94;;;2.65;80.69
76434;BME280;65265;53.200;6.080;2023-04-03T21:02:22;103237.06;;;2.50;80.31
76434;BME280;65265;53.200;6.080;2023-04-03T21:23:39;103243.25;;;2.45;79.96
76434;BME280;65265;53.200;6.080;2023-04-03T21:28:32;103240.53;;;2.44;80.19
76434;BME280;65265;53.200;6.080;2023-04-03T21:33:26;103247.78;;;2.41;79.85
76434;BME280;65265;53.200;6.080;2023-04-03T21:38:21;103248.13;;;2.44;80.18
76434;BME280;65265;53.200;6.080;2023-04-03T21:43:13;103235.53;;;2.37;79.17
76434;BME280;65265;53.200;6.080;2023-04-03T21:48:06;103244.91;;;2.38;79.69
76434;BME280;65265;53.200;6.080;2023-04-03T21:53:01;103243.00;;;2.28;79.71
76434;BME280;65265;53.200;6.080;2023-04-03T21:57:54;103250.81;;;2.23;81.00
76434;BME280;65265;53.200;6.080;2023-04-03T22:02:47;103252.59;;;2.24;81.34
76434;BME280;65265;53.200;6.080;2023-04-03T22:07:42;103253.09;;;2.28;81.58
76434;BME280;65265;53.200;6.080;2023-04-03T22:12:40;103253.22;;;2.37;81.59
76434;BME280;65265;53.200;6.080;2023-04-03T22:17:32;103243.84;;;2.36;82.07
76434;BME280;65265;53.200;6.080;2023-04-03T22:22:25;103250.03;;;2.31;81.01
76434;BME280;65265;53.200;6.080;2023-04-03T22:27:17;103234.19;;;2.25;81.91
76434;BME280;65265;53.200;6.080;2023-04-03T22:32:12;103236.06;;;2.19;81.48
76434;BME280;65265;53.200;6.080;2023-04-03T22:37:06;103222.75;;;2.13;80.73
76434;BME280;65265;53.200;6.080;2023-04-03T22:41:59;103228.25;;;2.02;81.36
76434;BME280;65265;53.200;6.080;2023-04-03T22:46:52;103224.25;;;2.04;81.52
76434;BME280;65265;53.200;6.080;2023-04-03T22:51:47;103212.78;;;1.99;82.18
76434;BME280;65265;53.200;6.080;2023-04-03T22:56:40;103220.75;;;1.95;81.94
76434;BME280;65265;53.200;6.080;2023-04-03T23:01:32;103225.09;;;1.89;83.04
76434;BME280;65265;53.200;6.080;2023-04-03T23:06:26;103224.88;;;1.95;84.08
76434;BME280;65265;53.200;6.080;2023-04-03T23:11:21;103235.47;;;1.99;83.94
76434;BME280;65265;53.200;6.080;2023-04-03T23:16:14;103228.75;;;2.07;83.11
76434;BME280;65265;53.200;6.080;2023-04-03T23:21:06;103230.84;;;1.95;82.16
76434;BME280;65265;53.200;6.080;2023-04-03T23:26:00;103230.13;;;1.89;83.33
76434;BME280;65265;53.200;6.080;2023-04-03T23:30:57;103229.81;;;1.86;83.82
76434;BME280;65265;53.200;6.080;2023-04-03T23:35:50;103205.69;;;1.81;85.35
76434;BME280;65265;53.200;6.080;2023-04-03T23:40:44;103209.25;;;1.83;84.70
76434;BME280;65265;53.200;6.080;2023-04-03T23:45:37;103208.94;;;1.80;83.97
76434;BME280;65265;53.200;6.080;2023-04-03T23:50:30;103207.03;;;1.71;83.45
76434;BME280;65265;53.200;6.080;2023-04-03T23:55:23;103215.75;;;1.81;84.88
